富山空港

2019/08/21

定点 富山空港 2019/8/21 wed

RJNT 202300Z VRB01KT 9999 -SHRA FEW003 BKN050 BKN100 26/24 Q1010

20190821_rjnt_00elga

ELGA ほんとに誰もいない海

20190821_rjnt_01ja86an

20190821_rjnt_02ja86an

ANA313 RJTT-RJNT JA86AN B737-881

RJNT 210000Z 25003KT 9999 -SHRA FEW010 BKN050 BKN070 27/24 Q1010

20190821_rjnt_03ja86an

長閑な河原

20190821_rjnt_04ja86an

鮎捕りには、飛行機などアウトオブ眼中

20190821_rjnt_05ja86an

ANA316 RJNT-RJTT JA86AN B737-881

20190821_rjnt_06vpclk

シーケンスチェンジで後になりました。

20190821_rjnt_07vpclk

VP-CLK RJGG-RJNT VP-CLK GV-SP(G550)

20190821_rjnt_08vpclk

今回4泊でしたね。

20190821_rjnt_09ja6768

JA6768 B412EP 富山県消防防災 東部へ

RJNT 210100Z 22003KT 180V280 9999 -SHRA FEW015 BKN050 BKN070 27/23 Q1010

20190821_rjnt_10vpclk

尾翼がでかい

20190821_rjnt_11vpclk

翼の上の胴体には何が・・

20190821_rjnt_12ja131a

321組は初めて来る人も多いのかな

20190821_rjnt_13ja131a

お先に・・

20190821_rjnt_14ja131a

きっちりタクシーラインに沿って

20190821_rjnt_15vpclk

20190821_rjnt_16vpclk

デザインのラインが秀逸

20190821_rjnt_17ja131a

ANA315 RJTT-RJNT JA131A A321-272N

20190821_rjnt_18ja131a

お鼻が白い

20190821_rjnt_19vpclk

20190821_rjnt_20vpclk

VP-CLK RJNT-VHHH VP-CLK GV-SP(G550)

20190821_rjnt_21vpclk

ゆっくりリフトオフ

20190821_rjnt_22vpclk

薄い排煙がジェット機らしい

20190821_rjnt_23ja6768

JA6768

RJNT 210200Z VRB02KT 9999 -SHRA FEW010 SCT030 BKN050 27/24 Q1010

20190821_rjnt_24b9958

20190821_rjnt_25b9958

時折水分補給

20190821_rjnt_26b9958

これは、スペマなの?

20190821_rjnt_27b9958

CSN613 ZYTL-RJNT B-9958 A320-232

20190821_rjnt_28b9958

おでこの上にも

20190821_rjnt_29b9958

これは、雷神さんと戦った跡か・・

20190821_rjnt_30gav

ようやく気がついた出入国在留管理庁 日本の法令を守れば、何も怖くありません。

20190821_rjnt_31ja131a

20190821_rjnt_32ja131a

ANA1181 RJNT-RJCC JA131A A321-272N

RJNT 210300Z VRB02KT 9999 -SHRA FEW010 SCT050 BKN150 28/24 Q1009

20190821_rjnt_33b9958

20190821_rjnt_34b9958

CSN614 RJNT-ZYTL B-9958 A320-232

午後からは雨模様かな

 

| | コメント (0)

2019/08/19

定点 富山空港 2019/8/19 mon

RJNT 190000Z VRB02KT 9000 FEW030 SCT210 31/24 Q1009

お盆を廻ったら、誰もいない海。

20190819_rjnt_00ja83an

20190819_rjnt_01ja83an

ANA313 RJTT-RJNT JA83AN B737-881

20190819_rjnt_02ja83an

ANA316 RJNT-RJTT JA83AN B737-881

20190819_rjnt_03ja139t

今日の「つるぎ」さんは、演舞場へ

20190819_rjnt_04ja139t

舞踏会の練習です。

20190819_rjnt_05ja139t

規定点10

20190819_rjnt_06ja139t

JA139T AW139 富山県警察

RJNT 190000Z VRB02KT 9000 FEW030 SCT210 31/24 Q1009

20190819_rjnt_07ja139t

可憐な風を浴びてきました。

20190819_rjnt_08ja6512

JA6512 AS350B3 AKF

20190819_rjnt_09ja114a

20190819_rjnt_10ja114a

ANA315 RJTT-RJNT JA114A A321-211

20190819_rjnt_11ja114a

エンドまで転がって・・

20190819_rjnt_12b6652

CSN613 ZYTL-RJNT B-6652 A320-232

20190819_rjnt_13b6652

T1でピッタリと止まるがね

20190819_rjnt_14ja9876

JA9876 AS350B NNK

190200Z VRB05KT 8000 FEW030 BKN200 31/25 Q1009

20190819_rjnt_15b18661

ダイナさんは安全にサークリング

20190819_rjnt_16b18661

20190819_rjnt_17b18661

CAL170 RCTP-RJNT B-18661 B737-8AL

20190819_rjnt_18b18661

あんた誰ぇ? 

20190819_rjnt_19b6652

20190819_rjnt_20b6652

CSN614 RJNT-ZYTL B-6652 A320-232

20190819_rjnt_21semi

命は短いねぇ

20190819_rjnt_22ja114a

20190819_rjnt_23ja114a

ANA1181 RJNT-RJCC JA114A A321-211

20190819_rjnt_24ja114a

当面321が続くのかな

20190819_rjnt_25ja9690

山の主

20190819_rjnt_26ja9690

JA9690 AS332L AKF

190200Z VRB05KT 8000 FEW030 BKN200 31/25 Q1009

20190819_rjnt_27ja6512

JA6512

20190819_rjnt_28ja6512

「つるぎ」さん出動

20190819_rjnt_29ja6512

20190819_rjnt_30ja139t

JA139T

20190819_rjnt_31ja139t

今日は防災さん、フライト無し

20190819_rjnt_32b18661

20190819_rjnt_33b18661

CAL171 RJNT-RCTP B-18661 B737-8AL

20190819_rjnt_34b18661

降りそうで降らない空模様

| | コメント (0)

2019/08/17

定点 富山空港 2019/8/17 sat

お盆も終わっても、世の中連休中。高校野球も佳境。

RJNT 162300Z 29003KT 240V350 9999 FEW020 BKN060 BKN090 30/24 Q1002

20190817_rjnt_00ja63an

岩瀬浜は清掃ボランティア中

20190817_rjnt_01ja63an

ANA313 RJTT-RJNT JA63AN B737-881

RJNT 170100Z 26008KT 230V290 9999 FEW030 BKN070 BKN090 30/23 Q1003

20190817_rjnt_02ja63an

パッセンジャートラブルで一度GTBして再出発

20190817_rjnt_03ja63an

ANA316 RJNT-RJTT JA63AN B737-881

20190817_rjnt_04ja132a

20190817_rjnt_05ja132a

ANA315 RJTT-RJNT JA132A A321-272N

20190817_rjnt_06b6908

20190817_rjnt_07b6908

CSN613 ZYTL-RJNT B-6908 A320-232

RJNT 170200Z 25008KT 9999 FEW030 SCT090 32/23 Q1003

20190817_rjnt_08ja6502

JA6502 AS350B3 AKF

20190817_rjnt_09ja6502

35の尾翼になんか描いてある

20190817_rjnt_10ja132a

ANA1181 RJNT-RJCC JA132A A321-272N

RJNT 170300Z 28010KT 240V320 9999 FEW030 SCT040 32/23 Q1003

20190817_rjnt_11b6908

CSN614 RJNT-ZYTL B-6908 A320-232

RJNT 170400Z 28011KT 9999 FEW040 33/23 Q1002

20190817_rjnt_12b5261

世界のパン

20190817_rjnt_13b5261

CSH825 ZSPD-RJNT B-5261 B737-76D

20190817_rjnt_14b5261

絶賛増便中

20190817_rjnt_15ja6768

コロコロして準備中

20190817_rjnt_16ja6768

新しいPさん搭乗

20190817_rjnt_17ja6768

いよいよ機種転準備かな

20190817_rjnt_18ja6768

20190817_rjnt_19ja6768

JA6768 B412EP 富山県消防防災

20190817_rjnt_20ja6768

本日は訓練

RJNT 170500Z 28011KT 9999 FEW040 32/23 Q1002

20190817_rjnt_21ja10ym

JA10YM A109SP SAK 富山県ドクヘリ 南破方面

20190817_rjnt_22b5261

CSH826 RJNT-ZSPD B-5261 B737-76D

20190817_rjnt_23b5261

もう熱て暑て、撤収

この後、動乱の香港からお客さんが・・

 

| | コメント (0)

2019/08/10

定点 富山空港 2019/8/10 sat

世間は、今日土曜からお盆休みモード突入

RJNT 092347Z VRB02KT 9999 FEW030 BKN/// 32/25 Q1008 RMK 1CU030 A2979

20190810_rjnt_00ja84an

20190810_rjnt_01ja84an

ANA313 RJTT-RJNT JA84AN B737-881

RJNT 092347Z VRB02KT 9999 FEW030 BKN/// 32/25 Q1008 RMK 1CU030 A2979

20190810_rjnt_02ja10ym

JA10YM A10SP SAK 富山県ドクターヘリ

20190810_rjnt_03ja6768

とやまさん始業点検

20190810_rjnt_04ja84an

20190810_rjnt_05ja84an

ANA316 RJNT-RJTT JA84AN B737-881

20190810_rjnt_06ja84an

20190810_rjnt_07ja6768

さて出動です。

20190810_rjnt_08ja6768

20190810_rjnt_09ja6768

JA6768 B412EP 富山県消防防災

20190810_rjnt_10ja6768

RJNT 100100Z 32003KT 280V040 9999 FEW030 SCT/// 32/23 Q1008

20190810_rjnt_11ja112a

20190810_rjnt_12ja112a

ANA315 RJTT-RJNT JA112A A321-211

20190810_rjnt_13b9951

20190810_rjnt_14b9951

CSN613 ZYTL-RJNT B-9951 A320-232

RJNT 100200Z VRB02KT 9999 FEW030 SCT/// 34/23 Q1008

20190810_rjnt_15semi

蝉がさかんに鳴いている盛夏

RJNT 100300Z 36010KT 9999 FEW030 SCT050 34/24 Q1008

20190810_rjnt_16ja112a

20190810_rjnt_17ja112a

ANA1181 RJNT-RJCC JA112A A321-211

RJNT 100400Z 36010KT 9999 FEW030 34/23 Q1007

20190810_rjnt_18b9951

CSN614 RJNT-ZYTL B-9951 A320-232

本日は、赤いヤツは台風で欠航です。

| | コメント (0)

2019/08/07

定点 富山空港 2019/8/7 wed

熱帯夜が明けて、朝から暑い

RJNT 062330Z 17005KT 090V210 9999 FEW040 BKN/// 32/23 Q1010 RMK 1CU040 A2984

20190807_rjnt_00tateyamamaru

本日のお船は、立山丸

20190807_rjnt_01ja62an

ANA313 RJTT-RJNT JA62AN B737-881

RJNT 070000Z 18005KT 110V240 9999 FEW040 BKN/// 33/24 Q1010

20190807_rjnt_02ja6768

JA6768 B412EP 富山県消防防災 今日も朝から山岳救難

20190807_rjnt_03ja6502

JA6502 AS350B3 AKF

20190807_rjnt_04ja62an

ANA316 RJNT-RJTT JA62AN B737-881

20190807_rjnt_05ja6502

JA6502

20190807_rjnt_06ja18yt

JA18YT B505 SIJ 小矢部に帰ってきたのかな?

RJNT 070000Z 18005KT 110V240 9999 FEW040 BKN/// 33/24 Q1010

20190807_rjnt_07ja132a

20190807_rjnt_08ja132a

ANA315 RJTT-RJNT JA132A A321-272N

20190807_rjnt_09ja6502

JA6502

RJNT 070200Z 30004KT 250V340 9999 FEW030 BKN/// 35/23 Q1009

20190807_rjnt_10b6652

20190807_rjnt_11b6652

CSN613 ZYTL-RJNT B-6652 A320-232

20190807_rjnt_12b6652

20190807_rjnt_13ja2435

JA2435 SF-25C

20190807_rjnt_14ja132a

20190807_rjnt_15ja132a

ANA1181 RJNT-RJCC JA132A A321-272N

RJNT 070200Z 30004KT 250V340 9999 FEW030 BKN/// 35/23 Q1009

20190807_rjnt_16b6652

20190807_rjnt_17b6652

CSN614 RJNT-ZYTL B-6652 A320-232

20190807_rjnt_18ja828n

JA828N C208 NNK 朝から測量 直上通過

RJNT 070400Z 36009KT 9999 FEW030 FEW035TCU SCT/// 35/22 Q1009

通常はこのあたりで離脱するのですが・・  怪しいNOTAMがでていて

20190807_rjnt_19bv

13時半すぎから不法侵入者対処訓練開始

20190807_rjnt_20bv

空港管理事務所の車両が現場に向かいます。

20190807_rjnt_21bv

不審者インサイト 刃物を持っているそうだ

20190807_rjnt_22bv

富山県で一番暑いアメダスポイント 35℃

20190807_rjnt_23bv

じんだはんが追いかけます。ぎょぎょ婦警さんではないですか・・・

20190807_rjnt_24bv

パトカーが急行

20190807_rjnt_25bv

捕り物の始まり 御用だ、御用だ

20190807_rjnt_26bv

不審者確保

20190807_rjnt_27bv

所轄は富山南署 パトカーが引き上げて、点検等のシーケンスを確認していたようでした。

暑い中、ご苦労さまです。

 

| | コメント (0)

2019/08/02

定点 富山空港 2019/8/2 fri

気がついたら・・ 8月ですよ。毎日酷暑で、出歩くのもうましか物。

RJNT 012339Z VRB01KT 9999 FEW040 32/23 Q1013 RMK 1CU040 A2992

20190802_rjnt_00elga

沖泊 ELGA  海水浴場に誰もいない

20190802_rjnt_01ja136a

20190802_rjnt_02ja136a

ANA313 RJTT-RJNT JA136A A321-272N

RJNT 020000Z VRB01KT 9999 FEW040 32/23 Q1013

20190802_rjnt_03ja9785

JA9785 AS350B TKB

20190802_rjnt_04ja136a

20190802_rjnt_05ja136a

ANA316 RJNT-RJTT JA136A A321-272N

RJNT 020100Z VRB02KT 9999 FEW040 32/22 Q1012

20190802_rjnt_06ja139t

毎日出動で忙しい

20190802_rjnt_07ja139t

JA139T AW139 富山県警察

20190802_rjnt_08ja135e

上空をIFR進入のへりがハイステーション

20190802_rjnt_09ja135e

JA135E EC135T2 JNS

20190802_rjnt_10ja135a

今日は、NEOが続きます

20190802_rjnt_11ja135a

ANA315 RJTT-RJNT JA135A A321-272N

RJNT 020200Z 34005KT 290V050 9999 FEW040 33/23 Q1011

20190802_rjnt_12ja01bk

JA01BK BK117C-2 KHI

シュミレート進入、ローアプローチして岐阜に帰って行きました。

20190802_rjnt_13ja135e

なにやら整備中

20190802_rjnt_14ja6516

JA6516 AS350B3 AKF

20190802_rjnt_15ja135e

八尾に向かうようで

20190802_rjnt_16ja135e

JA135E EC135T2 JNS

20190802_rjnt_17ja135a

20190802_rjnt_18ja135a

きっちり正対してお待ち

20190802_rjnt_19b18652

20190802_rjnt_20b18652

こちらもきっちりT-2で止めてスポットイン

20190802_rjnt_21b18652

CAL170 RCTP-RJNT B-18652 B737-8Q8

20190802_rjnt_22ja135a

20190802_rjnt_23ja135a

ANA1181 RJNT-RJCC JA135A A321-272N

20190802_rjnt_24ja135a

今年は千歳へは行けません・・

20190802_rjnt_25terminal

ドライブ・スタンプラリー開催中

20190802_rjnt_26terminal

台湾ランタン展は、大柄の新作がズラリ

20190802_rjnt_27terminal

熱い

RJNT 020200Z 34005KT 290V050 9999 FEW040 33/23 Q1011

20190802_rjnt_28b18652

CAL171 RJNT-RCTP B-18652 B737-8Q8

台湾加油

| | コメント (0)

2019/07/24

定点 富山空港 2019/7/24 wed

朝から青空が広がっていますが、水分も多目。いろいろなところに雲がもくもく。

RJNT 232300Z 13003KT 080V240 9999 FEW030 27/21 Q1007

20190724_rjnt_00ja80an

ANA313 RJTT-RJNT JA80AN B737-881

RJNT 240000Z VRB02KT 9999 FEW030 28/22 Q1007

20190724_rjnt_01ja80an

暑いので離陸距離が伸びているようで・・ 梅雨明け

20190724_rjnt_02ja80an

ANA316 RJNT-RJTT JA80AN B737-881

RJNT 240100Z 32003KT 250V060 9999 FEW030 30/23 Q1007

20190724_rjnt_03ja6502

JA6502 AS350B3 AKF

20190724_rjnt_04ja6768

防災さんも夏空が似合う

20190724_rjnt_05ja6768

JA6768 B412EP 富山県消防防災

20190724_rjnt_06ja113a

20190724_rjnt_07ja113a

ANA315 RJTT-RJNT JA113A A321-211

20190724_rjnt_08ja10ym

空港至近でドクヘリ事案発生

20190724_rjnt_09ja10ym

河での水難の模様

20190724_rjnt_10b6766

CSN613 ZYTL-RJNT B-6766 A320-232

20190724_rjnt_11b6766

RJNT 240200Z 28004KT 220V350 9999 SCT030 30/23 Q1006

20190724_rjnt_12ja139t

JA139T AW139 富山県警察

20190724_rjnt_13fvc

紆余曲折あって、ドクヘリランデブーは南運動公園

20190724_rjnt_14ja10ym

ドクター達は日陰で救急車待ち

20190724_rjnt_15ja10ym

JA10YM A109SP SAK 富山県ドクターヘリ

20190724_rjnt_16fvc

結局、ドクター同乗で市民病院搬送の模様

20190724_rjnt_17ja10ym

ドクヘリさんも出発

20190724_rjnt_18ja10ym

20190724_rjnt_19ja10ym

市民病院でドクターピックアップしてから帰投の模様

20190724_rjnt_20ja113a

20190724_rjnt_21ja113a

ANA1181 RJNT-RJCC JA113A A321-211

20190724_rjnt_22ja113a

ジャストクロスで煽られています。

20190724_rjnt_23ja139t

JA139T 警察さんは山岳事案に出動

RJNT 240300Z 28009KT 9999 VCSH FEW020 BKN030 30/23 Q1006

20190724_rjnt_24b6766

20190724_rjnt_25b6766

CSN614 RJNT-ZYTL B-6766 A320-232

20190724_rjnt_26b6766

20190724_rjnt_27ja139t

20190724_rjnt_28ja139t

JA139T 病院搬送して帰投。夏は忙しくなる。

 

| | コメント (0)

2019/07/20

定点 富山空港 2019/7/20 sat

今日は早朝活動

RJNT 192200Z VRB01KT 9999 -SHRA SCT003 BKN100 BKN150 24/23 Q1014

20190720_rjnt_00river

河原は朝靄に包まれて、水墨画の世界

20190720_rjnt_01ja138a

始発便はミルクの中から浮上します。

20190720_rjnt_02ja138a

ANA312 RJNT-RJTT JA138A A321-272N

20190720_rjnt_03ja138a

静かで心地よい音を響かせています。

RJNT 192300Z VRB01KT 9999 -SHRA BR FEW002 SCT005 BKN100 24/24 Q1014

20190720_rjnt_04ja13fj

本日のお客様

20190720_rjnt_05ja13fj

FDA9771 RJNS-RJNT JA13FJ ERJ-175STD

20190720_rjnt_06ja13fj

リバーサイドブルー

20190720_rjnt_07ja80an

薄くベイパーを引いています。

20190720_rjnt_08ja80an

ANA313 RJTT-RJNT JA80AN B737-881

20190720_rjnt_09fda

20190720_rjnt_10fda

今日は稚内行き また行きたいなぁ

RJNT 192300Z VRB01KT 9999 -SHRA BR FEW002 SCT005 BKN100 24/24 Q1014

20190720_rjnt_11ja13fj

お手ふりぃぃぃぃ

20190720_rjnt_12ja13fj

一際人が多いです。

20190720_rjnt_13ja13fj

FDA6591 RJNT-RJCW JA13FJ ERJ-175STD

20190720_rjnt_14ja13fj

軽快な音を響かせて

20190720_rjnt_15ja13fj

いってらっしゃーい

20190720_rjnt_16ja80an

おぅけい

20190720_rjnt_17ja80an

20190720_rjnt_18ja80an

ANA316 RJNT-RJTT JA80AN B737-881

RJNT 192300Z VRB01KT 9999 -SHRA BR FEW002 SCT005 BKN100 24/24 Q1014

20190720_rjnt_19ja136a

315は長いヤツ

20190720_rjnt_20ja136a

20190720_rjnt_21ja136a

ANA315 RJTT-RJNT JA136A A321-272N

20190720_rjnt_22b6896

20190720_rjnt_23b6896

CSN613 ZYTL-RJNT B-6896 A320-232

20190720_rjnt_24b6896

RJNT 192300Z VRB01KT 9999 -SHRA BR FEW002 SCT005 BKN100 24/24 Q1014

20190720_rjnt_25ja10ym

今日もドクヘリさんがお仕事

20190720_rjnt_26ja10ym

JA10YM A109SP SAK 富山県ドクターへり 当番は高岡か

20190720_rjnt_27ja136a

20190720_rjnt_28ja136a

ANA1181 RJNT-RJCC JA136A A321-272N

20190720_rjnt_29ja136a

北海道に行きたいですね。

RJNT 200300Z VRB01KT 9999 -SHRA FEW020 BKN150 BKN/// 28/24 Q1014

20190720_rjnt_30b6896

20190720_rjnt_31b6896

CSN614 RJNT-ZYTL B-6896 A320-232

20190720_rjnt_32b6896

離陸はやっ

20190720_rjnt_33b5260

20190720_rjnt_34b5260

CSH825 ZSPD-RJNT B-5260 B737-76D

20190720_rjnt_35b5260

本日の活動はココまで B6が来ないかなぁ

| | コメント (0)

2019/07/18

定点 富山空港 2019/7/17 wed

射水の水中処分船公開から転戦。ラジオを聴きながら、どこに着地するか?

RJNT 170100Z 36006KT 330V040 9999 SCT020 BKN070 27/21 Q1013

20190717_rjnt_00ja140a

315かサークリングRW02

20190717_rjnt_01ja140a

噴流に包まれたい

20190717_rjnt_02ja140a

ANA315 RJTT-RJNT JA140A A321-272N

20190717_rjnt_03ja140a

20190717_rjnt_04ja140a

20190717_rjnt_05ja140a

先週末からA321が入ってます。

20190717_rjnt_06ja6768

321の後を追って防災さんがアプローチ

20190717_rjnt_07ja6768

JA6768 B412EP 富山県消防防災

20190717_rjnt_08b9916

背風でもRW20ランディングの南方さん

20190717_rjnt_09b9916

20190717_rjnt_10b9916

でも止まりきれないので、ころがってくれます。

20190717_rjnt_11b9916

CSN613 ZYTL-RJNT B-9916 A320-232

20190717_rjnt_12b9916

RJNT 170200Z VRB03KT 9999 FEW015 SCT020 27/21 Q1013

20190717_rjnt_13ja139t

富山県最強 随分ツイッターを見てもらったようです。

20190717_rjnt_14ja139t

JA139T AW139 富山県警察 JA6768

入換の合間にしか見れない風景

20190717_rjnt_15ja139t

この日から山岳遭難救助訓練が始まりました。小松救難隊も参加してるよ。

20190717_rjnt_16ja140a

ANA1181 RJNT-RJCC JA140A A321-272N

20190717_rjnt_17ja140a

北の空に雲の切れ間

20190717_rjnt_18b9916

CSN614 RJNT-ZYTL B-9916 A320-232

20190717_rjnt_19b9916

青空ジェット

| | コメント (0)

2019/07/10

定点 富山空港 2019/7/10 wed

久しぶりに朝から青空広がる夏の日。

RJNT 092300Z VRB02KT 9999 FEW015 24/21 Q1009

20190710_rjnt_00ja89an

今日は、高い

20190710_rjnt_01ja89an

20190710_rjnt_02ja89an

ANA313 RJTT-RJNT JA89AN B737-8AL

RJNT 100000Z 35003KT 290V050 9999 FEW015 25/19 Q1008

20190710_rjnt_03ja6768

防災さんは一活動して休憩中

20190710_rjnt_04ja16ac

珍客万来

20190710_rjnt_05ja16ac

JA16AC Dassault Falcon 2000EX SAK

20190710_rjnt_06ja16ac

YOUはTOYAMAに何しにきたの~?

20190710_rjnt_07ja89an

20190710_rjnt_08ja89an

ANA316 RJNT-RJTT JA89AN B737-8AL

20190710_rjnt_09ja89an

ANA ANA ANA

20190710_rjnt_10ja6768

JA6768 B412EP 富山県消防防災

RJNT 100100Z 36007KT 9999 FEW020 27/20 Q1008

20190710_rjnt_11ja54an

ANA315 RJTT-RJNT JA54AN B737-881

20190710_rjnt_12ja6768

JA6768 なにやら写真撮影して帰ってきました。

20190710_rjnt_13b9911

CSN613 ZYTL-RJNT B-9911 A320-232

RJNT 100200Z 36007KT 9999 FEW020 27/20 Q1008

20190710_rjnt_14ja16ac

一時間半の滞在で出発

20190710_rjnt_15ja16ac

JA16AC F2TX SAK

20190710_rjnt_16ja16ac

喧しいけど、素早い離陸

20190710_rjnt_17ja16ac

夕方、また来るそうです。

20190710_rjnt_18ja10ym

JA10YM A109SP SAK 富山県ドクターヘリ 飛騨ミッション

20190710_rjnt_19ja6516

JA6516 AS350B3 AKF

20190710_rjnt_20ja54an

富山県下は「14歳の挑戦」実施中

20190710_rjnt_21ja54an

空港職員も経験できる

20190710_rjnt_22ja54an

20190710_rjnt_23ja54an

ANA1181 RJNT-RJCC JA54AN B737-881

20190710_rjnt_24b9911

20190710_rjnt_25b9911

CSN614 RJNT-ZYTL B-9911 A320-232

20190710_rjnt_26b9911

堤防では草刈実施中 オワもそこで見たい

RJNT 100300Z 36009KT 9999 FEW020 28/19 Q1008

20190710_rjnt_27ja6516

JA6516 AS350B3 AKF

20190710_rjnt_28ja6507

JA6507 AS350B3 AKF

RJNT 100400Z 36009KT 9999 FEW020 29/18 Q1008

20190710_rjnt_29ja6516

JA6516

20190710_rjnt_30ja6516

朝日さんは電力のお仕事で忙しい

20190710_rjnt_31fcv

シャワータイムが終って、場周マラソン

20190710_rjnt_32ja6768

午後の訓練へ

20190710_rjnt_33ja6768

のりこみぃぃ

20190710_rjnt_34ja6768

JA6768

本日は、待ち人来たずでしたが、静岡さんに助けられました。

 

| | コメント (0)

より以前の記事一覧

その他のカテゴリー

BI Boading record aircraft Boading record ship FlightTracking lighthouse NAVAIDS RJNT LOG SKY MASSAGE US NAVY USMC うみ おか そら てつ アクシデント エアロック チーム室屋 三沢飛行場 上五島空港 下地島空港 下総飛行場 与那国空港 中標津空港 中部国際空港 久米島空港 五島福江空港 仙台空港 伊江島空港 但馬空港 佐賀空港 入間飛行場 八尾空港 八戸飛行場 出雲空港 函館空港 利尻空港 北九州空港 十勝飛行場 千歳飛行場 博物館 厚木飛行場 名古屋飛行場 喜界空港 嘉手納飛行場 場外 壱岐空港 大分空港 大湊飛行場 大阪国際空港 大館能代空港 天草空港 奄美空港 奥尻空港 宇部山口空港 宇都宮飛行場 宮古空港 宮崎空港 富山空港 小松島飛行場 小松飛行場 屋久島空港 山形空港 岐阜飛行場 岡山空港 岩国飛行場 帯広空港 広島空港 庄内空港 徳之島空港 徳島飛行場 成田国際空港 新潟空港 新田原飛行場 旭川空港 旭川飛行場 明野飛行場 普天間飛行場 木更津飛行場 札幌飛行場 東京国際空港 松山空港 松島飛行場 松本空港 横田飛行場 沖永良部空港 波照間空港 浜松飛行場 海上保安庁 海上自衛隊 海外 熊本空港 百里飛行場 相馬原飛行場 石垣空港 石見空港 礼文空港 神戸空港 福井空港 福岡空港 福島空港 秋田空港 種子島空港 空撮 立川飛行場 築城飛行場 美保飛行場 能登空港 舞鶴飛行場 航空自衛隊 芦屋飛行場 花巻空港 調布飛行場 警務消防 那覇空港 釧路空港 長崎空港 関西国際空港 陸上自衛隊 隠岐空港 霞ヶ浦飛行場 霞目飛行場 青森空港 静岡空港 静浜飛行場 飛行場跡 飛行船 鹿児島空港 鹿屋飛行場